Aviation Digital Data Service (ADDS)

Output produced by TAFs form (2229 UTC 30 August 2015)
found at http://www.aviationweather.gov/adds/tafs/
 
KRIC 301758Z 3018/3118 17005KT P6SM BKN200 
     FM310300 21004KT P6SM FEW060 OVC100